Time,TemperatureF,DewpointF,PressureIn,WindDirection,WindDirectionDegrees,WindSpeedMPH,WindSpeedGustMPH,Humidity,HourlyPrecipIn,Conditions,Clouds,dailyrainin,SoftwareType,DateUTC
2013-02-07 00:01:00,23.7,17.3,29.03,NNE,22,2.4,2.4,76,0.00,,FEW,0.00,WeatherDisplay:10.37,2013-02-07 06:01:00,
2013-02-07 00:06:00,23.7,17.3,29.03,NNE,22,2.4,2.4,76,0.00,,FEW,0.00,WeatherDisplay:10.37,2013-02-07 06:06:00,
2013-02-07 00:11:00,23.7,17.3,29.03,NNE,22,2.4,2.4,76,0.00,,FEW,0.00,WeatherDisplay:10.37,2013-02-07 06:11:00,
2013-02-07 00:16:00,23.7,17.3,29.03,NNE,22,2.4,2.4,76,0.00,,FEW,0.00,WeatherDisplay:10.37,2013-02-07 06:16:00,
2013-02-07 00:21:00,23.7,17.3,29.03,NNE,22,2.4,2.4,76,0.00,,FEW,0.00,WeatherDisplay:10.37,2013-02-07 06:21:00,
2013-02-07 00:26:00,23.7,17.3,29.03,NNE,22,2.4,2.4,76,0.00,,FEW,0.00,WeatherDisplay:10.37,2013-02-07 06:26:00,
2013-02-07 00:31:00,23.7,17.3,29.00,NNE,22,2.4,2.4,76,0.00,,FEW,0.00,WeatherDisplay:10.37,2013-02-07 06:31:00,
2013-02-07 00:36:00,23.7,17.3,29.00,NNE,22,2.4,2.4,76,0.00,,FEW,0.00,WeatherDisplay:10.37,2013-02-07 06:36:00,
2013-02-07 00:41:00,23.7,17.3,29.00,NNE,22,2.4,2.4,76,0.00,,FEW,0.00,WeatherDisplay:10.37,2013-02-07 06:41:00,
2013-02-07 00:46:00,23.7,17.3,29.03,NNE,22,2.4,2.4,76,0.00,,FEW,0.00,WeatherDisplay:10.37,2013-02-07 06:46:00,
2013-02-07 00:51:00,23.7,17.3,29.03,NNE,22,2.4,2.4,76,0.00,,FEW,0.00,WeatherDisplay:10.37,2013-02-07 06:51:00,
2013-02-07 00:56:00,23.7,17.3,29.03,NNE,22,2.4,2.4,76,0.00,,FEW,0.00,WeatherDisplay:10.37,2013-02-07 06:56:00,
2013-02-07 01:01:00,23.7,17.3,29.03,NNE,22,2.4,2.4,76,0.00,,FEW,0.00,WeatherDisplay:10.37,2013-02-07 07:01:00,
2013-02-07 01:06:00,23.7,17.3,29.03,NNE,22,2.4,2.4,76,0.00,,FEW,0.00,WeatherDisplay:10.37,2013-02-07 07:06:00,
2013-02-07 01:11:00,23.7,17.3,29.03,NNE,22,2.4,2.4,76,0.00,,FEW,0.00,WeatherDisplay:10.37,2013-02-07 07:11:00,
2013-02-07 01:16:00,23.7,17.3,29.03,NNE,22,2.4,2.4,76,0.00,,FEW,0.00,WeatherDisplay:10.37,2013-02-07 07:16:00,
2013-02-07 01:21:00,23.7,17.3,29.03,NNE,22,2.4,2.4,76,0.00,,FEW,0.00,WeatherDisplay:10.37,2013-02-07 07:21:00,
2013-02-07 01:26:00,23.7,17.3,29.03,NNE,22,2.4,2.4,76,0.00,,FEW,0.00,WeatherDisplay:10.37,2013-02-07 07:26:00,
2013-02-07 01:31:00,23.7,17.3,29.03,SE,135,1.6,1.6,76,0.00,,FEW,0.00,WeatherDisplay:10.37,2013-02-07 07:31:00,
2013-02-07 01:36:00,23.7,17.3,29.03,NNE,22,2.3,2.6,76,0.00,,FEW,0.00,WeatherDisplay:10.37,2013-02-07 07:36:00,
2013-02-07 01:41:00,23.7,17.3,29.03,NNE,22,3.5,3.5,76,0.00,,FEW,0.00,WeatherDisplay:10.37,2013-02-07 07:41:00,
2013-02-07 01:46:00,23.7,17.3,29.03,East,90,3.5,3.5,76,0.00,,FEW,0.00,WeatherDisplay:10.37,2013-02-07 07:46:00,
2013-02-07 01:51:00,23.7,17.3,29.03,NE,45,3.5,3.5,76,0.00,,FEW,0.00,WeatherDisplay:10.37,2013-02-07 07:51:00,
2013-02-07 01:56:00,23.7,17.3,29.03,NNE,22,3.5,3.5,76,0.00,,FEW,0.00,WeatherDisplay:10.37,2013-02-07 07:56:00,
2013-02-07 02:01:00,23.7,17.3,29.03,ENE,68,4.6,4.6,76,0.00,,FEW,0.00,WeatherDisplay:10.37,2013-02-07 08:01:00,
2013-02-07 02:06:00,23.7,17.3,29.03,ENE,68,4.6,4.6,76,0.00,,FEW,0.00,WeatherDisplay:10.37,2013-02-07 08:06:00,
2013-02-07 02:11:00,23.7,17.3,29.03,East,90,3.5,3.5,76,0.00,,FEW,0.00,WeatherDisplay:10.37,2013-02-07 08:11:00,
2013-02-07 02:16:00,23.7,17.3,29.06,NNW,338,3.5,3.5,76,0.00,,FEW,0.00,WeatherDisplay:10.37,2013-02-07 08:16:00,
2013-02-07 02:21:00,23.7,17.3,29.06,NE,45,2.3,2.3,76,0.00,,FEW,0.00,WeatherDisplay:10.37,2013-02-07 08:21:00,
2013-02-07 02:26:00,23.7,17.3,29.06,NNE,22,2.6,2.6,76,0.00,,FEW,0.00,WeatherDisplay:10.37,2013-02-07 08:26:00,
2013-02-07 02:31:00,23.7,17.3,29.06,NE,45,2.3,2.3,76,0.00,,FEW,0.00,WeatherDisplay:10.37,2013-02-07 08:31:00,
2013-02-07 02:36:00,23.7,17.3,29.06,NE,45,2.3,2.3,76,0.00,,FEW,0.00,WeatherDisplay:10.37,2013-02-07 08:36:00,
2013-02-07 02:41:00,23.7,17.3,29.06,ENE,68,2.9,2.9,76,0.00,,FEW,0.00,WeatherDisplay:10.37,2013-02-07 08:41:00,
2013-02-07 02:46:00,23.7,17.3,29.06,NNE,22,2.3,2.3,76,0.00,,FEW,0.00,WeatherDisplay:10.37,2013-02-07 08:46:00,
2013-02-07 02:51:00,23.7,17.3,29.06,NNE,22,2.3,2.3,76,0.00,,FEW,0.00,WeatherDisplay:10.37,2013-02-07 08:51:00,
2013-02-07 02:56:00,23.7,17.3,29.06,ENE,68,2.3,2.3,76,0.00,,FEW,0.00,WeatherDisplay:10.37,2013-02-07 08:56:00,
2013-02-07 03:01:00,23.7,17.3,29.06,NNW,338,3.5,3.5,76,0.00,,FEW,0.00,WeatherDisplay:10.37,2013-02-07 09:01:00,
2013-02-07 03:06:00,23.7,17.3,29.06,ENE,68,3.5,3.5,76,0.00,,FEW,0.00,WeatherDisplay:10.37,2013-02-07 09:06:00,
2013-02-07 03:11:00,23.7,17.3,29.06,ENE,68,2.3,2.3,76,0.00,,FEW,0.00,WeatherDisplay:10.37,2013-02-07 09:11:00,
2013-02-07 03:16:00,23.7,17.3,29.06,NNE,22,2.4,2.4,76,0.00,,FEW,0.00,WeatherDisplay:10.37,2013-02-07 09:16:00,
2013-02-07 03:21:00,23.7,17.3,29.06,NNE,22,2.6,2.6,76,0.00,,FEW,0.00,WeatherDisplay:10.37,2013-02-07 09:21:00,
2013-02-07 03:26:00,23.7,17.3,29.06,ENE,68,2.3,2.3,76,0.00,,FEW,0.00,WeatherDisplay:10.37,2013-02-07 09:26:00,
2013-02-07 03:31:00,23.7,17.3,29.06,NNE,22,2.3,2.3,76,0.00,,FEW,0.00,WeatherDisplay:10.37,2013-02-07 09:31:00,
2013-02-07 03:36:00,23.7,17.3,29.06,ENE,68,3.5,3.5,76,0.00,,FEW,0.00,WeatherDisplay:10.37,2013-02-07 09:36:00,
2013-02-07 03:41:00,23.7,17.3,29.06,NNE,22,3.3,3.3,76,0.00,,FEW,0.00,WeatherDisplay:10.37,2013-02-07 09:41:00,
2013-02-07 03:47:00,23.7,17.3,29.06,NNE,22,3.5,3.5,76,0.00,,FEW,0.00,WeatherDisplay:10.37,2013-02-07 09:47:00,
2013-02-07 03:52:00,23.7,17.3,29.06,NE,45,3.5,3.5,76,0.00,,FEW,0.00,WeatherDisplay:10.37,2013-02-07 09:52:00,
2013-02-07 03:57:00,23.7,17.3,29.06,NE,45,2.3,2.3,76,0.00,,FEW,0.00,WeatherDisplay:10.37,2013-02-07 09:57:00,
2013-02-07 04:02:00,23.7,17.3,29.06,NNE,22,5.8,5.8,76,0.00,,FEW,0.00,WeatherDisplay:10.37,2013-02-07 10:02:00,
2013-02-07 04:07:00,23.7,17.3,29.06,NNW,338,5.8,5.8,76,0.00,,FEW,0.00,WeatherDisplay:10.37,2013-02-07 10:07:00,
2013-02-07 04:12:00,23.7,17.3,29.06,NNE,22,4.6,4.6,76,0.00,,FEW,0.00,WeatherDisplay:10.37,2013-02-07 10:12:00,
2013-02-07 04:17:00,23.7,17.3,29.06,NE,45,3.5,3.5,76,0.00,,FEW,0.00,WeatherDisplay:10.37,2013-02-07 10:17:00,
2013-02-07 04:22:00,23.7,17.3,29.06,NE,45,4.6,4.6,76,0.00,,FEW,0.00,WeatherDisplay:10.37,2013-02-07 10:22:00,
2013-02-07 04:27:00,23.7,17.3,29.06,NNE,22,5.8,5.8,76,0.00,,FEW,0.00,WeatherDisplay:10.37,2013-02-07 10:27:00,
2013-02-07 04:32:00,23.7,17.3,29.06,NNE,22,3.5,3.5,76,0.00,,FEW,0.00,WeatherDisplay:10.37,2013-02-07 10:32:00,
2013-02-07 04:37:00,23.7,17.3,29.06,North,0,2.3,2.3,76,0.00,,FEW,0.00,WeatherDisplay:10.37,2013-02-07 10:37:00,
2013-02-07 04:42:00,23.7,17.3,29.06,NE,45,2.3,2.3,76,0.00,,FEW,0.00,WeatherDisplay:10.37,2013-02-07 10:42:00,
2013-02-07 04:47:00,23.7,17.3,29.06,NNW,338,5.8,5.8,76,0.00,,FEW,0.00,WeatherDisplay:10.37,2013-02-07 10:47:00,
2013-02-07 04:52:00,23.7,17.3,29.06,NNE,22,3.8,3.8,76,0.00,,FEW,0.00,WeatherDisplay:10.37,2013-02-07 10:52:00,
2013-02-07 04:57:00,23.7,17.3,29.06,NNE,22,4.6,4.6,76,0.00,,FEW,0.00,WeatherDisplay:10.37,2013-02-07 10:57:00,
2013-02-07 05:02:00,23.7,17.3,29.09,NNW,338,5.8,5.8,76,0.00,,FEW,0.00,WeatherDisplay:10.37,2013-02-07 11:02:00,
2013-02-07 05:07:00,23.7,17.3,29.09,NNE,22,5.8,5.8,76,0.00,,FEW,0.00,WeatherDisplay:10.37,2013-02-07 11:07:00,
2013-02-07 05:12:00,23.7,17.3,29.09,NE,45,4.6,4.6,76,0.00,,FEW,0.00,WeatherDisplay:10.37,2013-02-07 11:12:00,
2013-02-07 05:17:00,23.7,17.3,29.09,NNE,22,7.8,7.8,76,0.00,,FEW,0.00,WeatherDisplay:10.37,2013-02-07 11:17:00,
2013-02-07 05:22:00,23.7,17.3,29.09,NE,45,6.9,6.9,76,0.00,,FEW,0.00,WeatherDisplay:10.37,2013-02-07 11:22:00,
2013-02-07 05:27:00,23.7,17.3,29.09,NE,45,2.3,2.4,76,0.00,,FEW,0.00,WeatherDisplay:10.37,2013-02-07 11:27:00,
2013-02-07 05:32:00,23.7,17.3,29.09,NNW,338,5.8,5.8,76,0.00,,FEW,0.00,WeatherDisplay:10.37,2013-02-07 11:32:00,
2013-02-07 05:37:00,23.7,17.3,29.09,NNE,22,4.6,4.6,76,0.00,,FEW,0.00,WeatherDisplay:10.37,2013-02-07 11:37:00,
2013-02-07 05:42:00,23.7,17.3,29.09,NNE,22,5.8,5.8,76,0.00,,FEW,0.00,WeatherDisplay:10.37,2013-02-07 11:42:00,
2013-02-07 05:47:00,23.7,17.3,29.09,North,0,3.5,3.5,76,0.00,,FEW,0.00,WeatherDisplay:10.37,2013-02-07 11:47:00,
2013-02-07 05:52:00,23.7,17.3,29.09,NE,45,4.6,4.6,76,0.00,,FEW,0.00,WeatherDisplay:10.37,2013-02-07 11:52:00,
2013-02-07 05:57:00,23.7,17.3,29.09,NNE,22,5.8,5.8,76,0.00,,FEW,0.00,WeatherDisplay:10.37,2013-02-07 11:57:00,
2013-02-07 06:02:00,23.7,17.3,29.09,NNE,22,4.6,4.6,76,0.00,,FEW,0.00,WeatherDisplay:10.37,2013-02-07 12:02:00,
2013-02-07 06:07:00,23.7,17.3,29.09,NNE,22,5.8,5.8,76,0.00,,FEW,0.00,WeatherDisplay:10.37,2013-02-07 12:07:00,
2013-02-07 06:12:00,23.7,17.3,29.09,NNE,22,5.8,5.8,76,0.00,,FEW,0.00,WeatherDisplay:10.37,2013-02-07 12:12:00,
2013-02-07 06:17:00,23.7,17.3,29.09,NNE,22,5.4,5.4,76,0.00,,FEW,0.00,WeatherDisplay:10.37,2013-02-07 12:17:00,
2013-02-07 06:22:00,23.7,17.3,29.09,North,0,2.6,2.6,76,0.00,,FEW,0.00,WeatherDisplay:10.37,2013-02-07 12:22:00,
2013-02-07 06:27:00,23.7,17.3,29.09,NNE,22,3.5,3.5,76,0.00,,FEW,0.00,WeatherDisplay:10.37,2013-02-07 12:27:00,
2013-02-07 06:32:00,23.7,17.3,29.09,NNE,22,3.3,3.3,76,0.00,,FEW,0.00,WeatherDisplay:10.37,2013-02-07 12:32:00,
2013-02-07 06:37:00,23.7,17.3,29.09,NNE,22,4.6,4.6,76,0.00,,FEW,0.00,WeatherDisplay:10.37,2013-02-07 12:37:00,
2013-02-07 06:42:00,23.7,17.3,29.09,NNE,22,3.5,3.5,76,0.00,,FEW,0.00,WeatherDisplay:10.37,2013-02-07 12:42:00,
2013-02-07 06:47:00,23.7,17.3,29.09,NNE,22,4.6,4.6,76,0.00,,FEW,0.00,WeatherDisplay:10.37,2013-02-07 12:47:00,
2013-02-07 06:52:00,23.7,17.3,29.09,SE,135,5.8,5.8,76,0.00,,FEW,0.00,WeatherDisplay:10.37,2013-02-07 12:52:00,
2013-02-07 06:57:00,23.7,17.3,29.09,NE,45,3.5,3.5,76,0.00,,FEW,0.00,WeatherDisplay:10.37,2013-02-07 12:57:00,
2013-02-07 07:02:00,23.7,17.3,29.12,NNE,22,6.9,6.9,76,0.00,,FEW,0.00,WeatherDisplay:10.37,2013-02-07 13:02:00,
2013-02-07 07:07:00,23.7,17.3,29.12,NNE,22,5.8,5.8,76,0.00,,FEW,0.00,WeatherDisplay:10.37,2013-02-07 13:07:00,
2013-02-07 07:12:00,23.7,17.3,29.09,NNE,22,6.9,6.9,76,0.00,,FEW,0.00,WeatherDisplay:10.37,2013-02-07 13:12:00,
2013-02-07 07:17:00,23.7,17.3,29.09,NNE,22,6.9,6.9,76,0.00,,FEW,0.00,WeatherDisplay:10.37,2013-02-07 13:17:00,
2013-02-07 07:22:00,23.7,17.3,29.09,NE,45,5.8,5.8,76,0.00,,FEW,0.00,WeatherDisplay:10.37,2013-02-07 13:22:00,
2013-02-07 07:27:00,23.7,17.3,29.09,ESE,112,6.2,6.2,76,0.00,,FEW,0.00,WeatherDisplay:10.37,2013-02-07 13:27:00,
2013-02-07 07:32:00,23.7,17.3,29.09,NNE,22,5.8,5.8,76,0.00,,FEW,0.00,WeatherDisplay:10.37,2013-02-07 13:32:00,
2013-02-07 07:37:00,23.7,17.3,29.09,NNW,338,4.6,4.6,76,0.00,,FEW,0.00,WeatherDisplay:10.37,2013-02-07 13:37:00,
2013-02-07 07:42:00,23.7,17.3,29.09,NNW,338,4.6,4.6,76,0.00,,FEW,0.00,WeatherDisplay:10.37,2013-02-07 13:42:00,
2013-02-07 07:47:00,23.7,17.3,29.09,NNE,22,4.6,4.6,76,0.00,,FEW,0.00,WeatherDisplay:10.37,2013-02-07 13:47:00,
2013-02-07 07:52:00,23.7,17.3,29.09,NNW,338,5.8,5.8,76,0.00,,FEW,0.00,WeatherDisplay:10.37,2013-02-07 13:52:00,
2013-02-07 07:57:00,23.7,17.3,29.12,NNW,338,4.6,4.6,76,0.00,,FEW,0.00,WeatherDisplay:10.37,2013-02-07 13:57:00,
2013-02-07 08:02:00,23.7,17.3,29.12,NNE,22,3.8,3.8,76,0.00,,FEW,0.00,WeatherDisplay:10.37,2013-02-07 14:02:00,
2013-02-07 08:07:00,23.7,17.3,29.12,NNE,22,5.8,5.8,76,0.00,,FEW,0.00,WeatherDisplay:10.37,2013-02-07 14:07:00,
2013-02-07 08:13:00,23.7,17.3,29.12,NNE,22,6.0,6.0,76,0.00,,FEW,0.00,WeatherDisplay:10.37,2013-02-07 14:13:00,
2013-02-07 08:18:00,23.7,17.3,29.12,NNE,22,5.8,5.8,76,0.00,,FEW,0.00,WeatherDisplay:10.37,2013-02-07 14:18:00,
2013-02-07 08:23:00,23.7,17.3,29.12,NNE,22,4.3,4.3,76,0.00,,FEW,0.00,WeatherDisplay:10.37,2013-02-07 14:23:00,
2013-02-07 08:28:00,23.7,17.3,29.12,North,0,4.6,4.6,76,0.00,,FEW,0.00,WeatherDisplay:10.37,2013-02-07 14:28:00,
2013-02-07 08:33:00,23.7,17.3,29.12,NNE,22,5.8,5.8,76,0.00,,FEW,0.00,WeatherDisplay:10.37,2013-02-07 14:33:00,
2013-02-07 08:38:00,23.7,17.3,29.12,NE,45,5.8,5.8,76,0.00,,FEW,0.00,WeatherDisplay:10.37,2013-02-07 14:38:00,
2013-02-07 08:43:00,23.7,17.3,29.15,NE,45,5.8,5.8,76,0.00,,FEW,0.00,WeatherDisplay:10.37,2013-02-07 14:43:00,
2013-02-07 08:48:00,23.7,17.3,29.15,NNE,22,5.8,5.8,76,0.00,,FEW,0.00,WeatherDisplay:10.37,2013-02-07 14:48:00,
2013-02-07 08:53:00,23.7,17.3,29.15,NNE,22,7.1,7.1,76,0.00,,FEW,0.00,WeatherDisplay:10.37,2013-02-07 14:53:00,
2013-02-07 08:58:00,23.7,17.3,29.15,NNE,22,3.5,3.5,76,0.00,,FEW,0.00,WeatherDisplay:10.37,2013-02-07 14:58:00,
2013-02-07 09:03:00,23.7,17.3,29.15,North,0,4.0,4.0,76,0.00,,FEW,0.00,WeatherDisplay:10.37,2013-02-07 15:03:00,
2013-02-07 09:08:00,23.7,17.3,29.15,NNE,22,4.6,4.6,76,0.00,,FEW,0.00,WeatherDisplay:10.37,2013-02-07 15:08:00,
2013-02-07 09:13:00,23.7,17.3,29.15,NNE,22,5.8,5.8,76,0.00,,FEW,0.00,WeatherDisplay:10.37,2013-02-07 15:13:00,
2013-02-07 09:18:00,23.7,17.3,29.15,NE,45,3.1,3.1,76,0.00,,FEW,0.00,WeatherDisplay:10.37,2013-02-07 15:18:00,
2013-02-07 09:23:00,23.7,17.3,29.15,NE,45,4.6,4.6,76,0.00,,FEW,0.00,WeatherDisplay:10.37,2013-02-07 15:23:00,
2013-02-07 09:28:00,23.7,17.3,29.15,NNW,338,4.6,4.6,76,0.00,,FEW,0.00,WeatherDisplay:10.37,2013-02-07 15:28:00,
2013-02-07 09:33:00,23.7,17.3,29.15,NE,45,7.4,7.4,76,0.00,,FEW,0.00,WeatherDisplay:10.37,2013-02-07 15:33:00,
2013-02-07 09:38:00,23.7,17.3,29.15,East,90,8.1,8.1,76,0.00,,FEW,0.00,WeatherDisplay:10.37,2013-02-07 15:38:00,
2013-02-07 09:43:00,23.7,17.3,29.15,NNE,22,3.5,3.5,76,0.00,,FEW,0.00,WeatherDisplay:10.37,2013-02-07 15:43:00,
2013-02-07 09:48:00,23.7,17.3,29.15,NNE,22,4.6,4.6,76,0.00,,FEW,0.00,WeatherDisplay:10.37,2013-02-07 15:48:00,
2013-02-07 09:53:00,23.7,17.3,29.15,NNE,22,4.6,4.6,76,0.00,,FEW,0.00,WeatherDisplay:10.37,2013-02-07 15:53:00,
2013-02-07 09:58:00,23.7,17.3,29.12,NNE,22,6.9,6.9,76,0.00,,FEW,0.00,WeatherDisplay:10.37,2013-02-07 15:58:00,
2013-02-07 10:03:00,23.7,17.3,29.12,North,0,5.6,5.6,76,0.00,,FEW,0.00,WeatherDisplay:10.37,2013-02-07 16:03:00,
2013-02-07 10:08:00,23.7,17.3,29.12,NNW,338,4.6,4.6,76,0.00,,FEW,0.00,WeatherDisplay:10.37,2013-02-07 16:08:00,
2013-02-07 10:13:00,23.7,17.3,29.15,NNE,22,5.4,5.4,76,0.00,,FEW,0.00,WeatherDisplay:10.37,2013-02-07 16:13:00,
2013-02-07 10:18:00,23.7,17.3,29.15,NNE,22,5.8,5.8,76,0.00,,FEW,0.00,WeatherDisplay:10.37,2013-02-07 16:18:00,
2013-02-07 10:23:00,23.7,17.3,29.15,NNE,22,4.6,4.6,76,0.00,,FEW,0.00,WeatherDisplay:10.37,2013-02-07 16:23:00,
2013-02-07 10:28:00,23.7,17.3,29.15,West,270,5.8,5.8,76,0.00,,FEW,0.00,WeatherDisplay:10.37,2013-02-07 16:28:00,
2013-02-07 10:33:00,23.7,17.3,29.15,NNE,22,6.9,6.9,76,0.00,,FEW,0.00,WeatherDisplay:10.37,2013-02-07 16:33:00,
2013-02-07 10:38:00,23.7,17.3,29.15,NNE,22,8.1,8.1,76,0.00,,FEW,0.00,WeatherDisplay:10.37,2013-02-07 16:38:00,
2013-02-07 10:43:00,23.7,17.3,29.15,NNE,22,5.8,5.8,76,0.00,,FEW,0.00,WeatherDisplay:10.37,2013-02-07 16:43:00,
2013-02-07 10:48:00,23.7,17.3,29.15,NNW,338,4.6,4.6,76,0.00,,FEW,0.00,WeatherDisplay:10.37,2013-02-07 16:48:00,
2013-02-07 10:53:00,23.7,17.3,29.15,ESE,112,4.9,4.9,76,0.00,,FEW,0.00,WeatherDisplay:10.37,2013-02-07 16:53:00,
2013-02-07 10:58:00,23.7,17.3,29.15,NE,45,5.8,5.8,76,0.00,,FEW,0.00,WeatherDisplay:10.37,2013-02-07 16:58:00,
2013-02-07 11:03:00,23.7,17.3,29.15,NNE,22,5.9,5.9,76,0.00,,FEW,0.00,WeatherDisplay:10.37,2013-02-07 17:03:00,
2013-02-07 11:08:00,23.7,17.3,29.15,NNE,22,2.3,2.6,76,0.00,,FEW,0.00,WeatherDisplay:10.37,2013-02-07 17:08:00,
2013-02-07 11:13:00,23.7,17.3,29.15,NNE,22,4.7,4.7,76,0.00,,FEW,0.00,WeatherDisplay:10.37,2013-02-07 17:13:00,
2013-02-07 11:18:00,23.7,17.3,29.15,NNE,22,9.2,9.2,76,0.00,,FEW,0.00,WeatherDisplay:10.37,2013-02-07 17:18:00,
2013-02-07 11:23:00,23.7,17.3,29.15,NNE,22,4.7,4.7,76,0.00,,FEW,0.00,WeatherDisplay:10.37,2013-02-07 17:23:00,
2013-02-07 11:28:00,23.7,17.3,29.15,ENE,68,6.9,6.9,76,0.00,,FEW,0.00,WeatherDisplay:10.37,2013-02-07 17:28:00,
2013-02-07 11:33:00,23.7,17.3,29.15,ESE,112,3.5,3.5,76,0.00,,FEW,0.00,WeatherDisplay:10.37,2013-02-07 17:33:00,
2013-02-07 11:38:00,23.7,17.3,29.15,NE,45,4.6,4.6,76,0.00,,FEW,0.00,WeatherDisplay:10.37,2013-02-07 17:38:00,
2013-02-07 11:43:00,23.7,17.3,29.18,NNW,338,5.8,5.9,76,0.00,,FEW,0.00,WeatherDisplay:10.37,2013-02-07 17:43:00,
2013-02-07 11:48:00,23.7,17.3,29.18,ESE,112,5.8,6.0,76,0.00,,FEW,0.00,WeatherDisplay:10.37,2013-02-07 17:48:00,
2013-02-07 11:53:00,23.7,17.3,29.18,NNW,338,5.8,5.8,76,0.00,,FEW,0.00,WeatherDisplay:10.37,2013-02-07 17:53:00,
2013-02-07 11:58:00,23.7,17.3,29.15,NNE,22,8.1,8.1,76,0.00,,FEW,0.00,WeatherDisplay:10.37,2013-02-07 17:58:00,
2013-02-07 12:03:00,23.7,17.3,29.15,NE,45,6.9,6.9,76,0.00,,FEW,0.00,WeatherDisplay:10.37,2013-02-07 18:03:00,
2013-02-07 12:08:00,23.7,17.3,29.15,NE,45,7.6,7.6,76,0.00,,FEW,0.00,WeatherDisplay:10.37,2013-02-07 18:08:00,
2013-02-07 12:13:00,23.7,17.3,29.15,East,90,4.6,4.6,76,0.00,,FEW,0.00,WeatherDisplay:10.37,2013-02-07 18:13:00,
2013-02-07 12:18:00,23.7,17.3,29.15,NNE,22,10.4,10.4,76,0.00,,FEW,0.00,WeatherDisplay:10.37,2013-02-07 18:18:00,
2013-02-07 12:23:00,23.7,17.3,29.15,NNW,338,6.9,6.9,76,0.00,,FEW,0.00,WeatherDisplay:10.37,2013-02-07 18:23:00,
2013-02-07 12:28:00,23.7,17.3,29.15,NNE,22,4.6,4.6,76,0.00,,FEW,0.00,WeatherDisplay:10.37,2013-02-07 18:28:00,
2013-02-07 12:33:00,23.7,17.3,29.15,NE,45,5.8,5.8,76,0.00,,FEW,0.00,WeatherDisplay:10.37,2013-02-07 18:33:00,
2013-02-07 12:38:00,23.7,17.3,29.15,NNE,22,5.8,5.8,76,0.00,,FEW,0.00,WeatherDisplay:10.37,2013-02-07 18:38:00,
2013-02-07 12:43:00,23.7,17.3,29.15,NNW,338,7.1,7.1,76,0.00,,FEW,0.00,WeatherDisplay:10.37,2013-02-07 18:43:00,
2013-02-07 12:49:00,23.7,17.3,29.15,NNE,22,6.9,6.9,76,0.00,,FEW,0.00,WeatherDisplay:10.37,2013-02-07 18:49:00,
2013-02-07 12:54:00,23.7,17.3,29.15,NNE,22,6.9,6.9,76,0.00,,FEW,0.00,WeatherDisplay:10.37,2013-02-07 18:54:00,
2013-02-07 12:59:00,23.7,17.3,29.12,NNW,338,5.8,5.8,76,0.00,,FEW,0.00,WeatherDisplay:10.37,2013-02-07 18:59:00,
2013-02-07 13:04:00,23.7,17.3,29.12,NNE,22,6.9,6.9,76,0.00,,FEW,0.00,WeatherDisplay:10.37,2013-02-07 19:04:00,
2013-02-07 13:09:00,23.7,17.3,29.12,North,0,8.1,8.1,76,0.00,,FEW,0.00,WeatherDisplay:10.37,2013-02-07 19:09:00,
2013-02-07 13:14:00,23.7,17.3,29.12,NNW,338,8.1,8.1,76,0.00,,FEW,0.00,WeatherDisplay:10.37,2013-02-07 19:14:00,
2013-02-07 13:19:00,23.7,17.3,29.12,NNE,22,5.8,5.8,76,0.00,,FEW,0.00,WeatherDisplay:10.37,2013-02-07 19:19:00,
2013-02-07 13:24:00,23.7,17.3,29.12,NNE,22,11.5,11.5,76,0.00,,FEW,0.00,WeatherDisplay:10.37,2013-02-07 19:24:00,
2013-02-07 13:29:00,23.7,17.3,29.18,North,0,6.9,6.9,76,0.00,,FEW,0.00,WeatherDisplay:10.37,2013-02-07 19:29:00,
2013-02-07 13:34:00,23.7,17.3,29.18,NE,45,4.6,4.6,76,0.00,,FEW,0.00,WeatherDisplay:10.37,2013-02-07 19:34:00,
2013-02-07 13:39:00,23.7,17.3,29.18,NE,45,5.8,5.8,76,0.00,,FEW,0.00,WeatherDisplay:10.37,2013-02-07 19:39:00,
2013-02-07 13:44:00,23.7,17.3,29.15,ENE,68,8.1,8.1,76,0.00,,FEW,0.00,WeatherDisplay:10.37,2013-02-07 19:44:00,
2013-02-07 13:49:00,23.7,17.3,29.15,NNE,22,5.8,5.8,76,0.00,,FEW,0.00,WeatherDisplay:10.37,2013-02-07 19:49:00,
2013-02-07 13:54:00,23.7,17.3,29.15,North,0,5.8,5.8,76,0.00,,FEW,0.00,WeatherDisplay:10.37,2013-02-07 19:54:00,
2013-02-07 13:59:00,23.7,17.3,29.15,NNE,22,4.6,4.6,76,0.00,,FEW,0.00,WeatherDisplay:10.37,2013-02-07 19:59:00,
2013-02-07 14:04:00,23.7,17.3,29.15,NNE,22,4.6,4.6,76,0.00,,FEW,0.00,WeatherDisplay:10.37,2013-02-07 20:04:00,
2013-02-07 14:09:00,23.7,17.3,29.15,NNE,22,4.6,4.6,76,0.00,,FEW,0.00,WeatherDisplay:10.37,2013-02-07 20:09:00,
2013-02-07 14:14:00,23.7,17.3,29.15,NE,45,5.8,5.8,76,0.00,,FEW,0.00,WeatherDisplay:10.37,2013-02-07 20:14:00,
2013-02-07 14:19:00,23.7,17.3,29.15,NNE,22,3.5,3.5,76,0.00,,FEW,0.00,WeatherDisplay:10.37,2013-02-07 20:19:00,
2013-02-07 14:24:00,23.7,17.3,29.15,NNE,22,3.5,3.5,76,0.00,,FEW,0.00,WeatherDisplay:10.37,2013-02-07 20:24:00,
2013-02-07 14:29:00,23.7,17.3,29.15,NNE,22,3.5,3.5,76,0.00,,FEW,0.00,WeatherDisplay:10.37,2013-02-07 20:29:00,
2013-02-07 14:34:00,23.7,17.3,29.15,NNE,22,7.4,7.4,76,0.00,,FEW,0.00,WeatherDisplay:10.37,2013-02-07 20:34:00,
2013-02-07 14:39:00,23.7,17.3,29.15,NNE,22,8.1,8.1,76,0.00,,FEW,0.00,WeatherDisplay:10.37,2013-02-07 20:39:00,
2013-02-07 14:44:00,23.7,17.3,29.15,NNE,22,3.5,5.4,76,0.00,,FEW,0.00,WeatherDisplay:10.37,2013-02-07 20:44:00,
2013-02-07 14:49:00,23.7,17.3,29.15,NNW,338,6.9,6.9,76,0.00,,FEW,0.00,WeatherDisplay:10.37,2013-02-07 20:49:00,
2013-02-07 14:54:00,23.7,17.3,29.15,NE,45,7.1,7.1,76,0.00,,FEW,0.00,WeatherDisplay:10.37,2013-02-07 20:54:00,
2013-02-07 14:59:00,23.7,17.3,29.15,NNE,22,5.8,5.8,76,0.00,,FEW,0.00,WeatherDisplay:10.37,2013-02-07 20:59:00,
2013-02-07 15:04:00,23.7,17.3,29.15,WNW,292,7.1,7.1,76,0.00,,FEW,0.00,WeatherDisplay:10.37,2013-02-07 21:04:00,
2013-02-07 15:09:00,23.7,17.3,29.15,WNW,292,7.1,7.1,76,0.00,,FEW,0.00,WeatherDisplay:10.37,2013-02-07 21:09:00,
2013-02-07 15:14:00,23.7,17.3,29.15,NNW,338,6.9,6.9,76,0.00,,FEW,0.00,WeatherDisplay:10.37,2013-02-07 21:14:00,
2013-02-07 15:19:00,23.7,17.3,29.15,NNE,22,5.8,5.8,76,0.00,,FEW,0.00,WeatherDisplay:10.37,2013-02-07 21:19:00,
2013-02-07 15:24:00,23.7,17.3,29.15,North,0,1.6,4.5,76,0.00,,FEW,0.00,WeatherDisplay:10.37,2013-02-07 21:24:00,
2013-02-07 15:29:00,23.7,17.3,29.18,ESE,112,4.7,4.7,76,0.00,,FEW,0.00,WeatherDisplay:10.37,2013-02-07 21:29:00,
2013-02-07 15:34:00,23.7,17.3,29.18,North,0,3.5,3.5,76,0.00,,FEW,0.00,WeatherDisplay:10.37,2013-02-07 21:34:00,
2013-02-07 15:39:00,23.7,17.3,29.18,North,0,3.5,3.5,76,0.00,,FEW,0.00,WeatherDisplay:10.37,2013-02-07 21:39:00,
2013-02-07 15:44:00,23.7,17.3,29.18,North,0,3.5,3.5,76,0.00,,FEW,0.00,WeatherDisplay:10.37,2013-02-07 21:44:00,
2013-02-07 15:49:00,23.7,17.3,29.18,North,0,3.5,3.5,76,0.00,,FEW,0.00,WeatherDisplay:10.37,2013-02-07 21:49:00,
2013-02-07 15:54:00,23.7,17.3,29.18,North,0,3.5,3.5,76,0.00,,FEW,0.00,WeatherDisplay:10.37,2013-02-07 21:54:00,
2013-02-07 15:59:00,23.7,17.3,29.18,North,0,3.5,3.5,76,0.00,,FEW,0.00,WeatherDisplay:10.37,2013-02-07 21:59:00,
2013-02-07 16:04:00,23.7,17.3,29.18,North,0,3.5,3.5,76,0.00,,FEW,0.00,WeatherDisplay:10.37,2013-02-07 22:04:00,
2013-02-07 16:09:00,23.7,17.3,29.18,NNE,22,5.8,5.8,76,0.00,,FEW,0.00,WeatherDisplay:10.37,2013-02-07 22:09:00,
2013-02-07 16:14:00,23.7,17.3,29.20,NNE,22,5.8,5.8,76,0.00,,FEW,0.00,WeatherDisplay:10.37,2013-02-07 22:14:00,
2013-02-07 16:19:00,23.7,17.3,29.20,NNE,22,5.8,5.8,76,0.00,,FEW,0.00,WeatherDisplay:10.37,2013-02-07 22:19:00,
2013-02-07 16:24:00,23.7,17.3,29.20,NNE,22,5.8,5.8,76,0.00,,FEW,0.00,WeatherDisplay:10.37,2013-02-07 22:24:00,
2013-02-07 16:29:00,23.7,17.3,29.20,NNE,22,5.8,5.8,76,0.00,,FEW,0.00,WeatherDisplay:10.37,2013-02-07 22:29:00,
2013-02-07 16:34:00,23.7,17.3,29.20,NNE,22,5.8,5.8,76,0.00,,FEW,0.00,WeatherDisplay:10.37,2013-02-07 22:34:00,
2013-02-07 16:39:00,23.7,17.3,29.20,NNE,22,5.8,5.8,76,0.00,,FEW,0.00,WeatherDisplay:10.37,2013-02-07 22:39:00,
2013-02-07 16:44:00,23.7,17.3,29.20,NNE,22,5.8,5.8,76,0.00,,FEW,0.00,WeatherDisplay:10.37,2013-02-07 22:44:00,
2013-02-07 16:49:00,23.7,17.3,29.20,NNE,22,5.8,5.8,76,0.00,,FEW,0.00,WeatherDisplay:10.37,2013-02-07 22:49:00,
2013-02-07 16:54:00,23.7,17.3,29.20,NNE,22,5.8,5.8,76,0.00,,FEW,0.00,WeatherDisplay:10.37,2013-02-07 22:54:00,
2013-02-07 16:59:00,23.7,17.3,29.18,NNE,22,5.8,5.8,76,0.00,,FEW,0.00,WeatherDisplay:10.37,2013-02-07 22:59:00,
2013-02-07 17:04:00,23.7,17.3,29.18,North,0,4.6,4.6,76,0.00,,FEW,0.00,WeatherDisplay:10.37,2013-02-07 23:04:00,
2013-02-07 17:09:00,23.7,17.3,29.18,NNE,22,8.1,8.1,76,0.00,,FEW,0.00,WeatherDisplay:10.37,2013-02-07 23:09:00,
2013-02-07 17:14:00,23.7,17.3,29.20,NNE,22,8.1,8.1,76,0.00,,FEW,0.00,WeatherDisplay:10.37,2013-02-07 23:14:00,
2013-02-07 17:19:00,23.7,17.3,29.20,NNE,22,6.9,6.9,76,0.00,,FEW,0.00,WeatherDisplay:10.37,2013-02-07 23:19:00,
2013-02-07 17:24:00,23.7,17.3,29.20,NNW,338,5.8,5.8,76,0.00,,FEW,0.00,WeatherDisplay:10.37,2013-02-07 23:24:00,
2013-02-07 17:29:00,23.7,17.3,29.20,NNE,22,8.1,8.1,76,0.00,,FEW,0.00,WeatherDisplay:10.37,2013-02-07 23:29:00,
2013-02-07 17:34:00,23.7,17.3,29.20,NNE,22,2.9,4.5,76,0.00,,FEW,0.00,WeatherDisplay:10.37,2013-02-07 23:34:00,
2013-02-07 17:39:00,23.7,17.3,29.20,NNW,338,4.6,5.4,76,0.00,,FEW,0.00,WeatherDisplay:10.37,2013-02-07 23:39:00,
2013-02-07 17:44:00,23.7,17.3,29.20,NNW,338,4.6,5.4,76,0.00,,FEW,0.00,WeatherDisplay:10.37,2013-02-07 23:44:00,
2013-02-07 17:49:00,23.7,17.3,29.20,North,0,6.9,6.9,76,0.00,,FEW,0.00,WeatherDisplay:10.37,2013-02-07 23:49:00,
2013-02-07 17:54:00,23.7,17.3,29.20,NNE,22,4.9,4.9,76,0.00,,FEW,0.00,WeatherDisplay:10.37,2013-02-07 23:54:00,
2013-02-07 17:59:00,23.7,17.3,29.24,NE,45,4.6,4.6,76,0.00,,FEW,0.00,WeatherDisplay:10.37,2013-02-07 23:59:00,
2013-02-07 18:04:00,23.7,17.3,29.24,NNW,338,13.8,13.8,76,0.00,,FEW,0.00,WeatherDisplay:10.37,2013-02-08 00:04:00,
2013-02-07 18:10:00,23.7,17.3,29.24,NE,45,8.1,8.1,76,0.00,,FEW,0.00,WeatherDisplay:10.37,2013-02-08 00:10:00,
2013-02-07 18:15:00,23.7,17.3,29.26,NNE,22,5.9,5.9,76,0.00,,FEW,0.00,WeatherDisplay:10.37,2013-02-08 00:15:00,
2013-02-07 18:20:00,23.7,17.3,29.26,NNE,22,8.1,8.1,76,0.00,,FEW,0.00,WeatherDisplay:10.37,2013-02-08 00:20:00,
2013-02-07 18:25:00,23.7,17.3,29.26,NNE,22,3.8,3.8,76,0.00,,FEW,0.00,WeatherDisplay:10.37,2013-02-08 00:25:00,
2013-02-07 18:30:00,23.7,17.3,29.26,ENE,68,3.5,4.7,76,0.00,,FEW,0.00,WeatherDisplay:10.37,2013-02-08 00:30:00,
2013-02-07 18:35:00,23.7,17.3,29.26,NNE,22,7.8,7.8,76,0.00,,FEW,0.00,WeatherDisplay:10.37,2013-02-08 00:35:00,
2013-02-07 18:40:00,23.7,17.3,29.26,North,0,6.9,6.9,76,0.00,,FEW,0.00,WeatherDisplay:10.37,2013-02-08 00:40:00,
2013-02-07 18:45:00,23.7,17.3,29.26,NNE,22,12.7,12.7,76,0.00,,FEW,0.00,WeatherDisplay:10.37,2013-02-08 00:45:00,
2013-02-07 18:50:00,23.7,17.3,29.26,NE,45,6.9,6.9,76,0.00,,FEW,0.00,WeatherDisplay:10.37,2013-02-08 00:50:00,
2013-02-07 18:55:00,23.7,17.3,29.26,NNE,26,3.0,0.0,76,0.00,,FEW,0.00,WeatherDisplay:10.37,2013-02-08 00:55:00,
2013-02-07 19:00:00,23.7,17.3,29.26,NNE,22,8.1,8.1,76,0.00,,FEW,0.00,WeatherDisplay:10.37,2013-02-08 01:00:00,
2013-02-07 19:05:00,23.7,17.3,29.26,North,0,5.8,5.8,76,0.00,,FEW,0.00,WeatherDisplay:10.37,2013-02-08 01:05:00,
2013-02-07 19:10:00,23.7,17.3,29.26,NNE,21,2.0,0.0,76,0.00,,FEW,0.00,WeatherDisplay:10.37,2013-02-08 01:10:00,
2013-02-07 19:15:00,23.7,17.3,29.26,NNW,338,4.6,4.6,76,0.00,,FEW,0.00,WeatherDisplay:10.37,2013-02-08 01:15:00,
2013-02-07 19:20:00,23.7,17.3,29.26,NNW,338,3.5,4.0,76,0.00,,FEW,0.00,WeatherDisplay:10.37,2013-02-08 01:20:00,
2013-02-07 19:25:00,23.7,17.3,29.26,NNW,338,3.5,4.0,76,0.00,,FEW,0.00,WeatherDisplay:10.37,2013-02-08 01:25:00,
2013-02-07 19:30:00,23.7,17.3,29.26,NNW,338,3.5,4.0,76,0.00,,FEW,0.00,WeatherDisplay:10.37,2013-02-08 01:30:00,
2013-02-07 19:35:00,23.7,17.3,29.26,NNW,338,3.5,4.0,76,0.00,,FEW,0.00,WeatherDisplay:10.37,2013-02-08 01:35:00,
2013-02-07 19:40:00,23.7,17.3,29.26,NNW,338,3.5,4.0,76,0.00,,FEW,0.00,WeatherDisplay:10.37,2013-02-08 01:40:00,
2013-02-07 19:45:00,23.7,17.3,29.26,NNW,338,3.5,4.0,76,0.00,,FEW,0.00,WeatherDisplay:10.37,2013-02-08 01:45:00,
2013-02-07 19:50:00,23.7,17.3,29.26,NNW,338,3.5,4.0,76,0.00,,FEW,0.00,WeatherDisplay:10.37,2013-02-08 01:50:00,
2013-02-07 19:55:00,23.7,17.3,29.26,NNW,338,3.5,4.0,76,0.00,,FEW,0.00,WeatherDisplay:10.37,2013-02-08 01:55:00,
2013-02-07 20:00:00,23.7,17.3,29.26,NNW,338,3.5,4.0,76,0.00,,FEW,0.00,WeatherDisplay:10.37,2013-02-08 02:00:00,
2013-02-07 20:05:00,23.7,17.3,29.26,NNW,338,3.5,4.0,76,0.00,,FEW,0.00,WeatherDisplay:10.37,2013-02-08 02:05:00,
2013-02-07 20:10:00,23.7,17.3,29.26,NNW,338,3.5,4.0,76,0.00,,FEW,0.00,WeatherDisplay:10.37,2013-02-08 02:10:00,
2013-02-07 22:04:00,23.7,17.3,29.26,North,351,1.0,0.0,76,0.00,,FEW,0.00,WeatherDisplay:10.37,2013-02-08 04:04:00,
2013-02-07 22:09:00,26.2,19.7,29.29,NNE,22,4.6,4.6,76,0.00,,FEW,0.00,WeatherDisplay:10.37,2013-02-08 04:09:00,
2013-02-07 22:14:00,26.2,19.7,29.29,North,0,4.6,4.6,76,0.00,,FEW,0.00,WeatherDisplay:10.37,2013-02-08 04:14:00,
2013-02-07 22:19:00,26.2,19.7,29.32,NNE,22,4.7,4.7,76,0.00,,FEW,0.00,WeatherDisplay:10.37,2013-02-08 04:19:00,
2013-02-07 22:25:00,26.2,20.0,29.32,North,0,3.5,3.5,77,0.00,,FEW,0.00,WeatherDisplay:10.37,2013-02-08 04:25:00,
2013-02-07 22:30:00,26.1,19.8,29.32,North,0,3.5,3.5,77,0.00,,FEW,0.00,WeatherDisplay:10.37,2013-02-08 04:30:00,
2013-02-07 22:35:00,26.1,19.8,29.32,North,0,3.5,3.5,77,0.00,,FEW,0.00,WeatherDisplay:10.37,2013-02-08 04:35:00,
2013-02-07 22:40:00,26.1,19.8,29.32,North,0,3.5,3.5,77,0.00,,FEW,0.00,WeatherDisplay:10.37,2013-02-08 04:40:00,
2013-02-07 22:45:00,26.1,19.8,29.32,North,0,3.5,3.5,77,0.00,,FEW,0.00,WeatherDisplay:10.37,2013-02-08 04:45:00,
2013-02-07 22:50:00,26.1,19.8,29.32,North,0,3.5,3.5,77,0.00,,FEW,0.00,WeatherDisplay:10.37,2013-02-08 04:50:00,
2013-02-07 22:55:00,26.1,19.8,29.32,North,0,3.5,3.5,77,0.00,,FEW,0.00,WeatherDisplay:10.37,2013-02-08 04:55:00,
2013-02-07 23:00:00,26.1,19.8,29.32,North,0,3.5,3.5,77,0.00,,FEW,0.00,WeatherDisplay:10.37,2013-02-08 05:00:00,
2013-02-07 23:01:00,26.1,19.8,29.32,North,0,3.5,3.5,77,0.00,,FEW,0.00,WeatherDisplay:10.37,2013-02-08 05:01:00,
2013-02-07 23:06:00,26.1,19.8,29.32,North,0,3.5,3.5,77,0.00,,FEW,0.00,WeatherDisplay:10.37,2013-02-08 05:06:00,
2013-02-07 23:11:00,26.1,19.8,29.32,North,0,3.5,3.5,77,0.00,,FEW,0.00,WeatherDisplay:10.37,2013-02-08 05:11:00,
2013-02-07 23:16:00,25.9,19.4,29.32,North,0,3.5,3.5,76,0.00,,FEW,0.00,WeatherDisplay:10.37,2013-02-08 05:16:00,
2013-02-07 23:21:00,25.9,19.7,29.32,North,0,3.5,3.5,77,0.00,,FEW,0.00,WeatherDisplay:10.37,2013-02-08 05:21:00,
2013-02-07 23:26:00,25.9,19.7,29.32,NNE,22,4.9,4.9,77,0.00,,FEW,0.00,WeatherDisplay:10.37,2013-02-08 05:26:00,
2013-02-07 23:31:00,25.7,19.8,29.32,NNE,22,4.9,4.9,78,0.00,,FEW,0.00,WeatherDisplay:10.37,2013-02-08 05:31:00,
2013-02-07 23:36:00,25.7,19.8,29.32,NNE,22,3.8,4.7,78,0.00,,FEW,0.00,WeatherDisplay:10.37,2013-02-08 05:36:00,
2013-02-07 23:41:00,25.7,20.1,29.32,NNE,22,3.8,4.7,79,0.00,,FEW,0.00,WeatherDisplay:10.37,2013-02-08 05:41:00,
2013-02-07 23:46:00,25.7,20.1,29.32,NNE,22,3.8,4.7,79,0.00,,FEW,0.00,WeatherDisplay:10.37,2013-02-08 05:46:00,
2013-02-07 23:51:00,25.5,19.9,29.32,NNE,22,3.8,4.7,79,0.00,,FEW,0.00,WeatherDisplay:10.37,2013-02-08 05:51:00,
2013-02-07 23:56:00,25.5,19.9,29.32,NNE,22,3.8,4.7,79,0.00,,FEW,0.00,WeatherDisplay:10.37,2013-02-08 05:56:00,